sensor_id;sensor_type;location;lat;lon;timestamp;P1;durP1;ratioP1;P2;durP2;ratioP2
37349;SDS011;23231;52.358;4.926;2023-02-28T00:03:07;8.57;;;1.93;;
37349;SDS011;23231;52.358;4.926;2023-02-28T00:08:08;4.83;;;2.20;;
37349;SDS011;23231;52.358;4.926;2023-02-28T00:13:09;5.40;;;2.17;;
37349;SDS011;23231;52.358;4.926;2023-02-28T00:18:11;5.83;;;2.73;;
37349;SDS011;23231;52.358;4.926;2023-02-28T00:23:11;8.13;;;2.58;;
37349;SDS011;23231;52.358;4.926;2023-02-28T00:28:12;6.60;;;2.60;;
37349;SDS011;23231;52.358;4.926;2023-02-28T00:33:12;6.77;;;2.80;;
37349;SDS011;23231;52.358;4.926;2023-02-28T00:38:13;6.35;;;2.80;;
37349;SDS011;23231;52.358;4.926;2023-02-28T00:43:14;5.32;;;2.35;;
37349;SDS011;23231;52.358;4.926;2023-02-28T00:48:15;6.30;;;2.67;;
37349;SDS011;23231;52.358;4.926;2023-02-28T00:53:16;6.22;;;2.63;;
37349;SDS011;23231;52.358;4.926;2023-02-28T00:58:16;7.47;;;2.72;;
37349;SDS011;23231;52.358;4.926;2023-02-28T01:03:17;8.32;;;3.33;;
37349;SDS011;23231;52.358;4.926;2023-02-28T01:08:18;7.93;;;3.00;;
37349;SDS011;23231;52.358;4.926;2023-02-28T01:13:19;8.45;;;3.25;;
37349;SDS011;23231;52.358;4.926;2023-02-28T01:18:20;7.32;;;3.40;;
37349;SDS011;23231;52.358;4.926;2023-02-28T01:23:21;8.32;;;2.92;;
37349;SDS011;23231;52.358;4.926;2023-02-28T01:28:23;8.88;;;3.40;;
37349;SDS011;23231;52.358;4.926;2023-02-28T01:33:23;6.63;;;3.73;;
37349;SDS011;23231;52.358;4.926;2023-02-28T01:38:24;8.07;;;3.10;;
37349;SDS011;23231;52.358;4.926;2023-02-28T01:43:26;8.10;;;3.70;;
37349;SDS011;23231;52.358;4.926;2023-02-28T01:48:31;7.78;;;3.60;;
37349;SDS011;23231;52.358;4.926;2023-02-28T01:53:34;8.00;;;3.50;;
37349;SDS011;23231;52.358;4.926;2023-02-28T01:58:37;9.23;;;3.20;;
37349;SDS011;23231;52.358;4.926;2023-02-28T02:03:38;8.25;;;4.30;;
37349;SDS011;23231;52.358;4.926;2023-02-28T02:08:38;10.47;;;3.50;;
37349;SDS011;23231;52.358;4.926;2023-02-28T02:29:55;6.88;;;3.90;;
37349;SDS011;23231;52.358;4.926;2023-02-28T02:40:16;6.65;;;3.47;;
37349;SDS011;23231;52.358;4.926;2023-02-28T02:50:33;8.88;;;3.63;;
37349;SDS011;23231;52.358;4.926;2023-02-28T02:55:38;9.90;;;3.20;;
37349;SDS011;23231;52.358;4.926;2023-02-28T03:00:42;9.82;;;3.50;;
37349;SDS011;23231;52.358;4.926;2023-02-28T03:05:47;9.33;;;2.90;;
37349;SDS011;23231;52.358;4.926;2023-02-28T03:10:50;7.55;;;2.75;;
37349;SDS011;23231;52.358;4.926;2023-02-28T03:22:07;7.05;;;3.15;;
37349;SDS011;23231;52.358;4.926;2023-02-28T03:37:50;11.40;;;3.20;;
37349;SDS011;23231;52.358;4.926;2023-02-28T03:42:54;8.48;;;3.22;;
37349;SDS011;23231;52.358;4.926;2023-02-28T03:48:02;6.93;;;2.87;;
37349;SDS011;23231;52.358;4.926;2023-02-28T03:58:24;5.97;;;2.43;;
37349;SDS011;23231;52.358;4.926;2023-02-28T04:03:28;5.17;;;2.10;;
37349;SDS011;23231;52.358;4.926;2023-02-28T04:08:28;4.60;;;2.17;;
37349;SDS011;23231;52.358;4.926;2023-02-28T04:13:29;8.30;;;3.03;;
37349;SDS011;23231;52.358;4.926;2023-02-28T04:18:29;6.57;;;3.00;;
37349;SDS011;23231;52.358;4.926;2023-02-28T04:23:29;6.78;;;3.28;;
37349;SDS011;23231;52.358;4.926;2023-02-28T04:28:30;6.77;;;3.17;;
37349;SDS011;23231;52.358;4.926;2023-02-28T04:33:31;6.47;;;3.10;;
37349;SDS011;23231;52.358;4.926;2023-02-28T04:38:32;6.80;;;3.00;;
37349;SDS011;23231;52.358;4.926;2023-02-28T04:43:34;10.57;;;3.90;;
37349;SDS011;23231;52.358;4.926;2023-02-28T04:48:35;6.28;;;3.38;;
37349;SDS011;23231;52.358;4.926;2023-02-28T04:53:37;7.63;;;3.70;;
37349;SDS011;23231;52.358;4.926;2023-02-28T04:58:38;8.77;;;4.00;;
37349;SDS011;23231;52.358;4.926;2023-02-28T05:03:39;9.33;;;4.10;;
37349;SDS011;23231;52.358;4.926;2023-02-28T05:08:42;9.37;;;4.17;;
37349;SDS011;23231;52.358;4.926;2023-02-28T05:13:43;8.57;;;4.13;;
37349;SDS011;23231;52.358;4.926;2023-02-28T05:18:44;11.80;;;4.63;;
37349;SDS011;23231;52.358;4.926;2023-02-28T05:23:44;8.33;;;4.57;;
37349;SDS011;23231;52.358;4.926;2023-02-28T05:28:45;7.17;;;4.47;;
37349;SDS011;23231;52.358;4.926;2023-02-28T05:33:45;11.45;;;5.18;;
37349;SDS011;23231;52.358;4.926;2023-02-28T05:38:46;11.03;;;5.20;;
37349;SDS011;23231;52.358;4.926;2023-02-28T05:43:48;10.10;;;5.10;;
37349;SDS011;23231;52.358;4.926;2023-02-28T05:48:48;12.53;;;6.13;;
37349;SDS011;23231;52.358;4.926;2023-02-28T05:53:49;15.10;;;7.37;;
37349;SDS011;23231;52.358;4.926;2023-02-28T05:58:49;12.90;;;8.13;;
37349;SDS011;23231;52.358;4.926;2023-02-28T06:03:50;15.10;;;8.57;;
37349;SDS011;23231;52.358;4.926;2023-02-28T06:08:50;13.20;;;7.23;;
37349;SDS011;23231;52.358;4.926;2023-02-28T06:13:52;15.37;;;6.57;;
37349;SDS011;23231;52.358;4.926;2023-02-28T06:18:53;16.30;;;8.63;;
37349;SDS011;23231;52.358;4.926;2023-02-28T06:23:56;19.67;;;9.00;;
37349;SDS011;23231;52.358;4.926;2023-02-28T06:28:57;17.60;;;8.07;;
37349;SDS011;23231;52.358;4.926;2023-02-28T06:33:57;19.10;;;8.77;;
37349;SDS011;23231;52.358;4.926;2023-02-28T06:38:57;19.27;;;10.37;;
37349;SDS011;23231;52.358;4.926;2023-02-28T06:43:58;18.97;;;9.30;;
37349;SDS011;23231;52.358;4.926;2023-02-28T06:48:58;19.23;;;10.07;;
37349;SDS011;23231;52.358;4.926;2023-02-28T06:53:59;18.70;;;9.80;;
37349;SDS011;23231;52.358;4.926;2023-02-28T06:58:59;17.33;;;9.17;;
37349;SDS011;23231;52.358;4.926;2023-02-28T07:04:00;15.57;;;9.07;;
37349;SDS011;23231;52.358;4.926;2023-02-28T07:09:00;19.23;;;9.57;;
37349;SDS011;23231;52.358;4.926;2023-02-28T07:14:01;15.67;;;9.90;;
37349;SDS011;23231;52.358;4.926;2023-02-28T07:19:01;16.83;;;8.77;;
37349;SDS011;23231;52.358;4.926;2023-02-28T07:24:02;15.47;;;9.13;;
37349;SDS011;23231;52.358;4.926;2023-02-28T07:29:02;13.93;;;9.10;;
37349;SDS011;23231;52.358;4.926;2023-02-28T07:34:03;14.80;;;8.40;;
37349;SDS011;23231;52.358;4.926;2023-02-28T07:39:03;13.30;;;8.30;;
37349;SDS011;23231;52.358;4.926;2023-02-28T07:44:04;14.57;;;8.90;;
37349;SDS011;23231;52.358;4.926;2023-02-28T07:49:06;17.70;;;9.67;;
37349;SDS011;23231;52.358;4.926;2023-02-28T07:54:06;15.07;;;9.50;;
37349;SDS011;23231;52.358;4.926;2023-02-28T07:59:07;18.50;;;10.10;;
37349;SDS011;23231;52.358;4.926;2023-02-28T08:04:08;19.17;;;9.77;;
37349;SDS011;23231;52.358;4.926;2023-02-28T08:09:08;19.77;;;10.50;;
37349;SDS011;23231;52.358;4.926;2023-02-28T08:14:08;16.80;;;9.30;;
37349;SDS011;23231;52.358;4.926;2023-02-28T08:19:09;18.70;;;10.20;;
37349;SDS011;23231;52.358;4.926;2023-02-28T08:24:09;23.73;;;9.43;;
37349;SDS011;23231;52.358;4.926;2023-02-28T08:29:09;15.33;;;9.47;;
37349;SDS011;23231;52.358;4.926;2023-02-28T08:34:11;12.80;;;8.57;;
37349;SDS011;23231;52.358;4.926;2023-02-28T08:39:13;14.43;;;8.50;;
37349;SDS011;23231;52.358;4.926;2023-02-28T08:44:13;12.73;;;7.50;;
37349;SDS011;23231;52.358;4.926;2023-02-28T08:49:13;11.97;;;7.93;;
37349;SDS011;23231;52.358;4.926;2023-02-28T08:54:14;14.10;;;8.70;;
37349;SDS011;23231;52.358;4.926;2023-02-28T08:59:19;14.67;;;8.57;;
37349;SDS011;23231;52.358;4.926;2023-02-28T09:04:19;15.43;;;7.83;;
37349;SDS011;23231;52.358;4.926;2023-02-28T09:09:20;15.17;;;8.10;;
37349;SDS011;23231;52.358;4.926;2023-02-28T09:14:20;16.30;;;8.77;;
37349;SDS011;23231;52.358;4.926;2023-02-28T09:19:20;14.87;;;8.47;;
37349;SDS011;23231;52.358;4.926;2023-02-28T09:24:21;17.10;;;8.53;;
37349;SDS011;23231;52.358;4.926;2023-02-28T09:29:22;13.87;;;8.10;;
37349;SDS011;23231;52.358;4.926;2023-02-28T09:34:22;14.23;;;8.47;;
37349;SDS011;23231;52.358;4.926;2023-02-28T09:39:23;11.00;;;6.80;;
37349;SDS011;23231;52.358;4.926;2023-02-28T09:50:06;12.80;;;7.47;;
37349;SDS011;23231;52.358;4.926;2023-02-28T09:54:53;9.38;;;5.80;;
37349;SDS011;23231;52.358;4.926;2023-02-28T10:05:12;11.57;;;5.65;;
37349;SDS011;23231;52.358;4.926;2023-02-28T10:10:28;8.77;;;4.95;;
37349;SDS011;23231;52.358;4.926;2023-02-28T10:15:31;9.93;;;5.20;;
37349;SDS011;23231;52.358;4.926;2023-02-28T10:20:33;7.68;;;4.55;;
37349;SDS011;23231;52.358;4.926;2023-02-28T10:25:37;9.30;;;4.57;;
37349;SDS011;23231;52.358;4.926;2023-02-28T10:30:40;9.13;;;5.10;;
37349;SDS011;23231;52.358;4.926;2023-02-28T10:35:42;7.90;;;4.50;;
37349;SDS011;23231;52.358;4.926;2023-02-28T10:40:42;7.95;;;4.88;;
37349;SDS011;23231;52.358;4.926;2023-02-28T10:45:53;7.63;;;4.13;;
37349;SDS011;23231;52.358;4.926;2023-02-28T10:50:59;7.75;;;4.13;;
37349;SDS011;23231;52.358;4.926;2023-02-28T11:01:04;9.02;;;4.30;;
37349;SDS011;23231;52.358;4.926;2023-02-28T11:06:08;8.82;;;4.07;;
37349;SDS011;23231;52.358;4.926;2023-02-28T11:11:15;7.07;;;3.70;;
37349;SDS011;23231;52.358;4.926;2023-02-28T11:16:16;5.35;;;3.08;;
37349;SDS011;23231;52.358;4.926;2023-02-28T11:21:27;5.35;;;3.42;;
37349;SDS011;23231;52.358;4.926;2023-02-28T11:26:41;6.40;;;3.47;;
37349;SDS011;23231;52.358;4.926;2023-02-28T11:31:43;4.78;;;2.90;;
37349;SDS011;23231;52.358;4.926;2023-02-28T11:36:43;8.00;;;3.72;;
37349;SDS011;23231;52.358;4.926;2023-02-28T11:41:54;7.30;;;3.65;;
37349;SDS011;23231;52.358;4.926;2023-02-28T11:47:17;5.88;;;3.60;;
37349;SDS011;23231;52.358;4.926;2023-02-28T12:08:26;5.07;;;2.85;;
37349;SDS011;23231;52.358;4.926;2023-02-28T12:19:20;7.30;;;3.47;;
37349;SDS011;23231;52.358;4.926;2023-02-28T12:29:53;5.45;;;2.97;;
37349;SDS011;23231;52.358;4.926;2023-02-28T12:45:17;5.85;;;2.75;;
37349;SDS011;23231;52.358;4.926;2023-02-28T12:50:19;5.65;;;2.80;;
37349;SDS011;23231;52.358;4.926;2023-02-28T13:06:07;4.80;;;2.80;;
37349;SDS011;23231;52.358;4.926;2023-02-28T13:11:23;4.97;;;2.90;;
37349;SDS011;23231;52.358;4.926;2023-02-28T13:16:28;4.32;;;2.53;;
37349;SDS011;23231;52.358;4.926;2023-02-28T13:21:29;6.65;;;2.97;;
37349;SDS011;23231;52.358;4.926;2023-02-28T13:31:30;11.52;;;3.58;;
37349;SDS011;23231;52.358;4.926;2023-02-28T13:36:34;4.60;;;3.17;;
37349;SDS011;23231;52.358;4.926;2023-02-28T13:56:55;5.82;;;3.05;;
37349;SDS011;23231;52.358;4.926;2023-02-28T14:02:34;5.75;;;3.40;;
37349;SDS011;23231;52.358;4.926;2023-02-28T14:07:47;5.35;;;3.25;;
37349;SDS011;23231;52.358;4.926;2023-02-28T14:18:05;4.88;;;3.00;;
37349;SDS011;23231;52.358;4.926;2023-02-28T14:23:19;6.25;;;3.08;;
37349;SDS011;23231;52.358;4.926;2023-02-28T14:28:52;5.32;;;3.28;;
37349;SDS011;23231;52.358;4.926;2023-02-28T14:34:14;5.32;;;3.30;;
37349;SDS011;23231;52.358;4.926;2023-02-28T14:39:22;5.15;;;3.15;;
37349;SDS011;23231;52.358;4.926;2023-02-28T14:44:23;5.93;;;3.28;;
37349;SDS011;23231;52.358;4.926;2023-02-28T14:49:35;5.43;;;3.40;;
37349;SDS011;23231;52.358;4.926;2023-02-28T14:54:37;8.23;;;3.30;;
37349;SDS011;23231;52.358;4.926;2023-02-28T14:59:38;5.32;;;3.30;;
37349;SDS011;23231;52.358;4.926;2023-02-28T15:04:39;4.43;;;3.08;;
37349;SDS011;23231;52.358;4.926;2023-02-28T15:09:41;6.47;;;3.05;;
37349;SDS011;23231;52.358;4.926;2023-02-28T15:14:42;5.60;;;3.58;;
37349;SDS011;23231;52.358;4.926;2023-02-28T15:19:43;5.75;;;3.55;;
37349;SDS011;23231;52.358;4.926;2023-02-28T15:24:50;6.40;;;3.47;;
37349;SDS011;23231;52.358;4.926;2023-02-28T15:29:53;6.75;;;3.90;;
37349;SDS011;23231;52.358;4.926;2023-02-28T15:34:56;5.70;;;3.20;;
37349;SDS011;23231;52.358;4.926;2023-02-28T15:40:03;4.85;;;3.15;;
37349;SDS011;23231;52.358;4.926;2023-02-28T15:45:26;5.13;;;3.30;;
37349;SDS011;23231;52.358;4.926;2023-02-28T15:50:28;5.60;;;3.47;;
37349;SDS011;23231;52.358;4.926;2023-02-28T15:55:29;5.10;;;3.47;;
37349;SDS011;23231;52.358;4.926;2023-02-28T16:00:30;5.03;;;3.13;;
37349;SDS011;23231;52.358;4.926;2023-02-28T16:05:32;5.25;;;3.40;;
37349;SDS011;23231;52.358;4.926;2023-02-28T16:10:34;8.05;;;3.13;;
37349;SDS011;23231;52.358;4.926;2023-02-28T16:15:38;6.07;;;2.90;;
37349;SDS011;23231;52.358;4.926;2023-02-28T16:20:41;5.70;;;3.40;;
37349;SDS011;23231;52.358;4.926;2023-02-28T16:25:44;4.93;;;3.05;;
37349;SDS011;23231;52.358;4.926;2023-02-28T16:30:46;4.63;;;3.10;;
37349;SDS011;23231;52.358;4.926;2023-02-28T16:35:46;5.18;;;3.00;;
37349;SDS011;23231;52.358;4.926;2023-02-28T16:40:47;6.47;;;3.63;;
37349;SDS011;23231;52.358;4.926;2023-02-28T16:45:54;7.28;;;3.80;;
37349;SDS011;23231;52.358;4.926;2023-02-28T16:50:58;4.90;;;3.53;;
37349;SDS011;23231;52.358;4.926;2023-02-28T16:55:58;6.13;;;4.00;;
37349;SDS011;23231;52.358;4.926;2023-02-28T17:01:02;6.43;;;3.90;;
37349;SDS011;23231;52.358;4.926;2023-02-28T17:06:03;7.03;;;3.85;;
37349;SDS011;23231;52.358;4.926;2023-02-28T17:11:04;8.90;;;4.00;;
37349;SDS011;23231;52.358;4.926;2023-02-28T17:16:04;8.63;;;5.13;;
37349;SDS011;23231;52.358;4.926;2023-02-28T17:21:09;7.25;;;4.50;;
37349;SDS011;23231;52.358;4.926;2023-02-28T17:26:14;8.70;;;4.88;;
37349;SDS011;23231;52.358;4.926;2023-02-28T17:31:17;7.10;;;4.80;;
37349;SDS011;23231;52.358;4.926;2023-02-28T17:36:22;9.85;;;5.50;;
37349;SDS011;23231;52.358;4.926;2023-02-28T17:41:26;8.77;;;5.55;;
37349;SDS011;23231;52.358;4.926;2023-02-28T17:46:26;8.03;;;5.47;;
37349;SDS011;23231;52.358;4.926;2023-02-28T17:51:31;8.93;;;5.55;;
37349;SDS011;23231;52.358;4.926;2023-02-28T17:56:31;12.23;;;6.93;;
37349;SDS011;23231;52.358;4.926;2023-02-28T18:01:32;10.00;;;6.20;;
37349;SDS011;23231;52.358;4.926;2023-02-28T18:06:36;10.57;;;6.40;;
37349;SDS011;23231;52.358;4.926;2023-02-28T18:11:50;10.00;;;6.30;;
37349;SDS011;23231;52.358;4.926;2023-02-28T18:16:51;9.80;;;5.97;;
37349;SDS011;23231;52.358;4.926;2023-02-28T18:21:52;9.43;;;6.47;;
37349;SDS011;23231;52.358;4.926;2023-02-28T18:26:53;10.85;;;6.18;;
37349;SDS011;23231;52.358;4.926;2023-02-28T18:31:54;12.18;;;6.43;;
37349;SDS011;23231;52.358;4.926;2023-02-28T18:36:55;12.70;;;6.57;;
37349;SDS011;23231;52.358;4.926;2023-02-28T18:41:56;10.30;;;6.17;;
37349;SDS011;23231;52.358;4.926;2023-02-28T18:46:57;13.23;;;7.03;;
37349;SDS011;23231;52.358;4.926;2023-02-28T18:51:57;11.87;;;7.27;;
37349;SDS011;23231;52.358;4.926;2023-02-28T18:56:58;12.30;;;7.03;;
37349;SDS011;23231;52.358;4.926;2023-02-28T19:01:58;12.40;;;7.27;;
37349;SDS011;23231;52.358;4.926;2023-02-28T19:06:58;13.03;;;7.67;;
37349;SDS011;23231;52.358;4.926;2023-02-28T19:11:59;13.37;;;7.07;;
37349;SDS011;23231;52.358;4.926;2023-02-28T19:16:59;12.27;;;7.37;;
37349;SDS011;23231;52.358;4.926;2023-02-28T19:22:00;15.17;;;7.00;;
37349;SDS011;23231;52.358;4.926;2023-02-28T19:27:00;12.03;;;6.83;;
37349;SDS011;23231;52.358;4.926;2023-02-28T19:32:01;11.77;;;7.27;;
37349;SDS011;23231;52.358;4.926;2023-02-28T19:37:03;11.20;;;7.13;;
37349;SDS011;23231;52.358;4.926;2023-02-28T19:42:03;12.67;;;7.53;;
37349;SDS011;23231;52.358;4.926;2023-02-28T19:47:04;13.90;;;7.63;;
37349;SDS011;23231;52.358;4.926;2023-02-28T19:52:04;12.93;;;7.87;;
37349;SDS011;23231;52.358;4.926;2023-02-28T19:57:05;12.20;;;7.50;;
37349;SDS011;23231;52.358;4.926;2023-02-28T20:02:08;12.30;;;7.27;;
37349;SDS011;23231;52.358;4.926;2023-02-28T20:07:13;11.10;;;7.53;;
37349;SDS011;23231;52.358;4.926;2023-02-28T20:12:14;13.17;;;7.20;;
37349;SDS011;23231;52.358;4.926;2023-02-28T20:17:16;11.37;;;6.97;;
37349;SDS011;23231;52.358;4.926;2023-02-28T20:22:17;12.50;;;6.90;;
37349;SDS011;23231;52.358;4.926;2023-02-28T20:27:17;11.83;;;7.20;;
37349;SDS011;23231;52.358;4.926;2023-02-28T20:32:17;13.37;;;7.13;;
37349;SDS011;23231;52.358;4.926;2023-02-28T20:37:19;13.77;;;7.67;;
37349;SDS011;23231;52.358;4.926;2023-02-28T20:42:19;12.37;;;7.13;;
37349;SDS011;23231;52.358;4.926;2023-02-28T20:47:19;12.90;;;7.53;;
37349;SDS011;23231;52.358;4.926;2023-02-28T20:52:20;13.50;;;7.80;;
37349;SDS011;23231;52.358;4.926;2023-02-28T20:57:20;13.33;;;7.47;;
37349;SDS011;23231;52.358;4.926;2023-02-28T21:02:21;14.27;;;7.80;;
37349;SDS011;23231;52.358;4.926;2023-02-28T21:07:21;15.20;;;8.13;;
37349;SDS011;23231;52.358;4.926;2023-02-28T21:12:22;15.00;;;8.80;;
37349;SDS011;23231;52.358;4.926;2023-02-28T21:17:22;14.07;;;8.77;;
37349;SDS011;23231;52.358;4.926;2023-02-28T21:22:23;15.20;;;7.77;;
37349;SDS011;23231;52.358;4.926;2023-02-28T21:27:23;16.40;;;9.33;;
37349;SDS011;23231;52.358;4.926;2023-02-28T21:32:24;16.33;;;8.07;;
37349;SDS011;23231;52.358;4.926;2023-02-28T21:37:24;15.17;;;9.03;;
37349;SDS011;23231;52.358;4.926;2023-02-28T21:42:25;18.13;;;9.77;;
37349;SDS011;23231;52.358;4.926;2023-02-28T21:47:26;15.27;;;8.80;;
37349;SDS011;23231;52.358;4.926;2023-02-28T21:52:30;13.53;;;8.90;;
37349;SDS011;23231;52.358;4.926;2023-02-28T21:57:30;16.00;;;9.50;;
37349;SDS011;23231;52.358;4.926;2023-02-28T22:02:31;16.63;;;9.00;;
37349;SDS011;23231;52.358;4.926;2023-02-28T22:07:31;15.47;;;8.90;;
37349;SDS011;23231;52.358;4.926;2023-02-28T22:12:32;16.10;;;9.63;;
37349;SDS011;23231;52.358;4.926;2023-02-28T22:17:32;16.93;;;9.47;;
37349;SDS011;23231;52.358;4.926;2023-02-28T22:22:33;18.63;;;9.73;;
37349;SDS011;23231;52.358;4.926;2023-02-28T22:27:33;17.10;;;10.30;;
37349;SDS011;23231;52.358;4.926;2023-02-28T22:32:34;19.27;;;9.83;;
37349;SDS011;23231;52.358;4.926;2023-02-28T22:37:35;20.37;;;10.70;;
37349;SDS011;23231;52.358;4.926;2023-02-28T22:42:35;18.27;;;10.90;;
37349;SDS011;23231;52.358;4.926;2023-02-28T22:47:36;20.13;;;10.77;;
37349;SDS011;23231;52.358;4.926;2023-02-28T22:52:38;20.83;;;11.73;;
37349;SDS011;23231;52.358;4.926;2023-02-28T22:57:39;20.10;;;11.57;;
37349;SDS011;23231;52.358;4.926;2023-02-28T23:02:42;20.77;;;10.83;;
37349;SDS011;23231;52.358;4.926;2023-02-28T23:07:43;21.63;;;11.10;;
37349;SDS011;23231;52.358;4.926;2023-02-28T23:12:44;22.73;;;11.63;;
37349;SDS011;23231;52.358;4.926;2023-02-28T23:17:53;24.47;;;12.03;;
37349;SDS011;23231;52.358;4.926;2023-02-28T23:22:54;19.33;;;11.43;;
37349;SDS011;23231;52.358;4.926;2023-02-28T23:27:54;22.40;;;12.20;;
37349;SDS011;23231;52.358;4.926;2023-02-28T23:32:54;25.13;;;13.33;;
37349;SDS011;23231;52.358;4.926;2023-02-28T23:37:55;22.37;;;11.57;;
37349;SDS011;23231;52.358;4.926;2023-02-28T23:42:56;24.40;;;12.33;;
37349;SDS011;23231;52.358;4.926;2023-02-28T23:47:57;24.87;;;13.30;;
37349;SDS011;23231;52.358;4.926;2023-02-28T23:52:57;25.13;;;13.23;;
37349;SDS011;23231;52.358;4.926;2023-02-28T23:57:57;24.33;;;12.60;;
